Accueil
METAR-TAF:

METAR-TAF

Aéroports :

Aéroport de Calvi-Sainte-Catherine

Calvi, France

latitude: 42-32N, longitude: 008-48E, altitude: 64 m

Observation

Le bulletin a été fait il y a 24 minutes, à 11:00 UTC
Vent 5 kt de nord/nord-ouest, variant entre nord-ouest et nord/nord-est
Température 23°C
Humidité 78%
Pression 1022 hPa
Visibilité 10 km ou plus
pas de nuages en-dessous de 1500 mètres et pas de cumulonimbus.

METAR: LFKC 201100Z AUTO 34005KT 310V020 CAVOK 23/19 Q1022 NOSIG

Heure: 13:24 (11:24 UTC)

Prévision

Le bulletin a été fait il y a 3 heures et 24 minutes, à 08:00 UTC
Prévision valable du 20 à 09 UTC au 21 à 09 UTC
Vent 8 kt de nord
Visibilité 10 km ou plus
pas de nuages en-dessous de 1500 mètres et pas de cumulonimbus.

TAF: LFKC 200800Z 2009/2109 35008KT CAVOK TX25/2012Z TN14/2104Z

Observations et prévisions météorologiques de plus de 4000 aéroports (messages METAR et TAF).

Les stations disponibles sont représentées par des disques jaunes et rouges sur la carte.

Passer la souris dessus pour voir le nom de la station.

Cliquer dessus pour voir les observations et prévisions météorologiques.

Pour changer de carte: cliquez sur les boutons verts avec une croix noire pour zoomer, sur le bouton vert avec un tiret pour effectuer un zoom arrière, ou sur les flèches vertes pour les cartes adjacentes.


METAR-TAF: